Tiempo atmosférico en la estación meteorológica de Águilas, Murcia (26 m.)



Fecha
DESCASC
Temp. máxima en grados centígrados (hora)
DESCASC
Temp. mínima en grados centígrados (hora)
DESCASC
Temp. media en grados centígrados
DESCASC
Racha de viento máxima en m/sg (hora)
DESCASC
Velocidad máxima media en intervalos de 10 minutos(hora)
DESCASC
Precipitaciones diarias en mm
DESCASC
Precipitaciones de 00:00 a 06:00 en mm
DESCASC
Precipitaciones de 06:00 a 12:00 en mm
DESCASC
Precipitaciones de 12:00 a 18:00 en mm
DESCASC
Precipitaciones de 18:00 a 24:00 en mm
DESCASC
15-08-2019 31.1 (14:40) 23 (06:40) 27.1 6.67 (12:40) 3.89 (13:10) 0 0 0 0 0
14-08-2019 29.2 (13:40) 23 (00:00) 26.1 7.22 (15:30) 3.89 (15:50) 0 0 0 0 0
13-08-2019 31 (12:30) 25.8 (00:00) 28.4 12.22 (12:50) 7.5 (13:00) 0 0 0 0 0
12-08-2019 32 (12:50) 24.8 (00:00) 28.4 8.06 (14:20) 4.44 (14:30) 0 0 0 0 0
11-08-2019 30.6 (17:50) 25.3 (00:00) 27.9 6.39 (14:40) 3.89 (14:20) 0 0 0 0 0
10-08-2019 34.5 (14:40) 24 (00:00) 29.3 7.22 (18:40) 4.17 (18:40) 0 0 0 0 0
09-08-2019 32.3 (13:10) 23.6 (00:00) 27.9 6.39 (18:30) 3.61 (14:30) 0 0 0 0 0
08-08-2019 34.7 (15:10) 23.8 (00:00) 29.3 5.56 (15:10) 3.61 (15:20) 0 0 0 0 0
07-08-2019 33.5 (17:00) 23.9 (00:00) 28.7 6.67 (13:30) 3.61 (13:30) 0 0 0 0 0
06-08-2019 31.1 (18:20) 24.5 (00:00) 27.8 5.83 (13:20) 3.33 (13:20) 0 0 0 0 0
05-08-2019 31 (12:40) 25 (00:00) 28 8.33 (14:40) 4.17 (13:20) 0 0 0 0 0
04-08-2019 30.1 (14:10) 24.4 (00:00) 27.3 6.39 (15:50) 3.89 (15:50) 0 0 0 0 0
03-08-2019 29.9 (11:40) 23.6 (00:00) 26.8 7.78 (15:40) 4.72 (14:50) 0 0 0 0 0
02-08-2019 30.2 (17:00) 23.7 (00:00) 27 7.22 (13:30) 4.17 (11:50) 0 0 0 0 0
01-08-2019 30.2 (15:30) 23.7 (00:00) 27 7.5 (00:40) 3.89 (12:10) 0 0 0 0 0
31-07-2019 31.6 (16:50) 24.3 (00:00) 27.9 14.17 (11:40) 8.06 (13:10) 0 0 0 0 0
30-07-2019 29.7 (16:40) 22.6 (00:00) 26.2 8.89 (16:40) 5.28 (16:50) 0 0 0 0 0
29-07-2019 27.8 (15:30) 22.1 (00:00) 24.9 6.94 (14:20) 3.33 (13:40) 0 0 0 0 0
28-07-2019 29.6 (00:00) 23.7 (00:00) 26.7 8.06 (00:30) 3.61 (00:30) 0 0 0 0 0
27-07-2019 36 (18:50) 24.1 (00:00) 30.1 14.72 (20:10) 6.94 (20:20) 0 0 0 0 0
26-07-2019 31.3 (23:40) 24.2 (00:00) 27.8 7.22 (23:40) 4.17 (23:40) 0 0 0 0 0
25-07-2019 35.2 (12:40) 24.5 (00:00) 29.9 9.72 (12:40) 5.28 (12:30) 0 0 0 0 0
24-07-2019 -- (--) -- (--) -- -- (--) -- (--) -- -- -- 0 0
23-07-2019 36.1 (12:10) 24.1 (00:00) 30.1 9.72 (13:20) 5.83 (17:00) 0 0 0 0 0
22-07-2019 32.3 (14:00) 24.5 (00:00) 28.4 12.22 (14:40) 7.22 (15:30) 0 0 0 0 0
21-07-2019 32 (10:50) 24.5 (00:00) 28.3 12.5 (12:50) 8.33 (12:50) 0 0 0 0 0
20-07-2019 34.9 (12:10) 26.1 (00:00) 30.5 16.94 (16:00) 9.72 (16:00) 0 0 0 0 0
19-07-2019 33.1 (11:30) 21.1 (00:00) 27.1 12.22 (17:10) 6.94 (16:30) 0 0 0 0 0

Gráficas

Temp. máximas Temp. mínimas Temp. medias Precipitaciones Rachas de viento máximas Velocidades máximas media en intervalos de 10 minutos

Datos horarios

Fecha y hora oficial Temperatura (ºC) Velocidad del viento (km/h) Dirección del viento Racha (km/h) Dirección de racha Precipitación (mm) Presión (hPa) Tendencia (hPa) Humedad (%)
2019-08-17 23:00:00 27 3 Norte 6 Norte 0 1009.8 1.3 53
2019-08-17 22:00:00 27.1 3 Este 7 Sudeste 0 1009.4 0.4 52
2019-08-17 21:00:00 27.3 2 Este 13 Sur 0 1009 -0.7 70
2019-08-17 20:00:00 28.4 5 Sudeste 12 Sur 0 1008.5 -1.6 66
2019-08-17 19:00:00 29.4 6 Sur 13 Sudeste 0 1009 -1.8 62
2019-08-17 18:00:00 29.6 8 Sur 18 Sudoeste 0 1009.7 -1.7 60
2019-08-17 17:00:00 29.5 11 Sur 19 Sur 0 1010.1 -1.2 62
2019-08-17 16:00:00 29.4 12 Sur 20 Sur 0 1010.8 -1.7 61
2019-08-17 15:00:00 29.7 11 Sur 22 Sur 0 1011.4 -1.5 61
2019-08-17 14:00:00 30.1 9 Sur 21 Sudeste 0 1011.3 -1.5 58
2019-08-17 13:00:00 29.2 13 Sur 22 Sur 0 1012.5 0.2 62
2019-08-17 12:00:00 28.9 12 Sudeste 19 Sudeste 0 1012.9 0.8 58
2019-08-17 11:00:00 28.6 10 Sudeste 21 Sur 0 1012.8 1 61
2019-08-17 10:00:00 29.2 10 Sudeste 14 Sudeste 0 1012.3 0.7 41
2019-08-17 09:00:00 26.7 0 Calma 5 Noroeste 0 1012.1 0.6 44
2019-08-17 08:00:00 23 2 Este 9 Norte 0 1011.8 -0.1 52
2019-08-17 07:00:00 22.7 4 Norte 8 Norte 0 1011.6 -0.5 55
2019-08-17 06:00:00 23.4 4 Nordeste 9 Nordeste 0 1011.5 -1 61
2019-08-17 05:00:00 23 0 Calma 4 Nordeste 0 1011.9 -1 72
2019-08-17 04:00:00 23.8 3 Norte 7 Norte 0 1012.1 -1.1 75
2019-08-17 03:00:00 24.7 5 Norte 9 Norte 0 1012.5 -0.6 76
2019-08-17 02:00:00 25.5 4 Norte 8 Norte 0 1012.9 -0.2 76
2019-08-17 01:00:00 25.2 3 Nordeste 8 Este 0 1013.2 0.4 78
2019-08-17 00:00:00 25.4 4 Este 9 Este 0 1013.1 0.7 79
2019-08-16 23:00:00 25.7 6 Este 9 Este 0 1013.1 0.9 77
2019-08-16 22:00:00 26 7 Este 13 Este 0 1012.8 0.5 75
2019-08-16 21:00:00 26.5 6 Sudeste 17 Sudeste 0 1012.4 -0.4 73
2019-08-16 20:00:00 27.6 11 Sudeste 22 Sudeste 0 1012.2 -1.3 68
2019-08-16 19:00:00 28.3 11 Sudeste 28 Sudeste 0 1012.3 -0.5 66
2019-08-16 18:00:00 29 14 Sudeste 25 Sudeste 0 1012.8 -0.4 62
2019-08-16 17:00:00 29.3 12 Sudeste 28 Sur 0 1013.5 -0.2 61
2019-08-16 16:00:00 29.1 15 Sudeste 27 Sudeste 0 1012.8 -1.3 59
2019-08-16 15:00:00 29.7 14 Sudeste 25 Sur 0 1013.2 -1.2 56
2019-08-16 14:00:00 30 13 Sudeste 25 Sudeste 0 1013.7 -1 53
2019-08-16 13:00:00 30.3 13 Sudeste 27 Sudeste 0 1014.1 -0.5 42
2019-08-16 12:00:00 30.3 14 Sudeste 22 Sudeste 0 1014.4 0 39
2019-08-16 11:00:00 29.7 12 Sudeste 18 Sudeste 0 1014.7 0.5 42
2019-08-16 10:00:00 28.8 5 Sudoeste 10 Sudeste 0 1014.6 1 42
2019-08-16 09:00:00 26.9 0 Calma 4 Norte 0 1014.4 1 35
2019-08-16 08:00:00 22.8 2 Nordeste 6 Noroeste 0 1014.2 0.9 45
2019-08-16 07:00:00 22.7 0 Calma 4 Norte 0 1013.6 0.3 41
2019-08-16 06:00:00 23.2 3 Nordeste 9 Nordeste 0 1013.4 -0.1 37
2019-08-16 05:00:00 23 2 Nordeste 4 Norte 0 1013.3 -0.5 43
2019-08-16 04:00:00 23.5 0 Calma 6 Nordeste 0 1013.3 -0.6 42
2019-08-16 03:00:00 24.3 3 Nordeste 9 Norte 0 1013.5 -0.5 38
2019-08-16 02:00:00 24.4 0 Calma 5 Nordeste 0 1013.8 -0.2 43
2019-08-16 01:00:00 25.6 4 Nordeste 7 Nordeste 0 1013.9 0.2 47
2019-08-16 00:00:00 26.1 4 Nordeste 9 Este 0 1014 0.6 51
2019-08-15 23:00:00 25.9 4 Este 13 Este 0 1014 1.9 60
2019-08-15 22:00:00 26.5 8 Este 15 Este 0 1013.7 0.9 68
2019-08-15 21:00:00 27.5 8 Este 17 Este 0 1013.4 0.4 60
2019-08-15 20:00:00 29.3 9 Este 19 Sudeste 0 1012.1 -1 47
2019-08-15 19:00:00 29.8 10 Sudeste 21 Sudeste 0 1012.8 -0.6 38
2019-08-15 18:00:00 30.1 12 Sudeste 23 Sudeste 0 1013 -0.6 40
2019-08-15 17:00:00 30.4 10 Sur 21 Sudeste 0 1013.1 -0.7 45
2019-08-15 16:00:00 30.2 13 Sudeste 24 Sudeste 0 1013.4 -1.1 46
2019-08-15 15:00:00 30.6 13 Sur 24 Sudeste 0 1013.6 -1 46
2019-08-15 14:00:00 30 13 Sudeste 24 Sudeste 0 1013.8 -0.8 48
2019-08-15 13:00:00 29.9 12 Sudeste 24 Sudeste 0 1014.5 0 46
2019-08-15 12:00:00 30.2 11 Sudeste 19 Sudeste 0 1014.6 0 45
2019-08-15 11:00:00 28.8 9 Sur 15 Sur 0 1014.6 0.3 55
2019-08-15 10:00:00 28.5 6 Sudeste 12 Sudeste 0 1014.5 0.5 60
2019-08-15 09:00:00 25.6 4 Noroeste 9 Noroeste 0 1014.6 1 68
2019-08-15 08:00:00 24.2 4 Nordeste 10 Nordeste 0 1014.3 0.8 76
2019-08-15 07:00:00 23.1 3 Este 6 Este 0 1014 0.2 78
2019-08-15 06:00:00 23.2 2 Este 7 Norte 0 1013.6 -0.3 75
2019-08-15 05:00:00 23.7 4 Norte 10 Nordeste 0 1013.5 -0.8 76
2019-08-15 04:00:00 24.4 4 Nordeste 8 Nordeste 0 1013.8 -0.7 73
2019-08-15 03:00:00 24.5 3 Norte 6 Nordeste 0 1013.9 -0.6 71
2019-08-15 02:00:00 24.6 2 Norte 6 Nordeste 0 1014.3 -0.1 71
2019-08-15 01:00:00 25.2 3 Norte 6 Norte 0 1014.5 0.6 73
2019-08-15 00:00:00 25.3 2 Norte 5 Oeste 0 1014.5 0.9 73
2019-08-14 23:00:00 25.5 3 Oeste 7 Oeste 0 1014.4 0.7 73
2019-08-14 22:00:00 26 4 Sudoeste 9 Sudoeste 0 1013.9 0 70
2019-08-14 21:00:00 26.4 4 Sudeste 12 Sur 0 1013.6 -0.2 68
2019-08-14 20:00:00 27.3 7 Sur 19 Sur 0 1013.7 -0.4 65
2019-08-14 19:00:00 27.8 9 Sudeste 21 Sur 0 1013.9 -0.6 63
2019-08-14 18:00:00 28.5 12 Sur 22 Sur 0 1013.8 -1.2 58
2019-08-14 17:00:00 28.9 12 Sur 24 Sur 0 1014.1 -1.4 56
2019-08-14 16:00:00 28.7 11 Sur 26 Sudeste 0 1014.5 -0.6 56
2019-08-14 15:00:00 28.8 12 Sur 22 Sudeste 0 1015 -1 57
2019-08-14 14:00:00 28.7 12 Sur 22 Sur 0 1015.5 -0.6 57
2019-08-14 13:00:00 29 11 Sur 22 Sudeste 0 1015.1 -1 54
2019-08-14 12:00:00 28.4 11 Sudeste 20 Sudeste 0 1016 -0.2 55
2019-08-14 11:00:00 28.2 9 Sudeste 21 Sur 0 1016.1 0.3 54
2019-08-14 10:00:00 27.8 7 Sur 13 Sur 0 1016.1 0.8 54
2019-08-14 09:00:00 25.6 3 Noroeste 6 Noroeste 0 1016.2 1.1 61
2019-08-14 08:00:00 23.1 3 Noroeste 8 Noroeste 0 1015.8 0.9 70
2019-08-14 07:00:00 23.5 5 Nordeste 7 Nordeste 0 1015.3 0.3 67
2019-08-14 06:00:00 23.5 2 Norte 5 Norte 0 1015.1 -0.1 67
2019-08-14 05:00:00 23.6 4 Norte 7 Nordeste 0 1014.9 -0.5 66
2019-08-14 04:00:00 23.9 0 Calma 4 Noroeste 0 1015 -0.5 67
2019-08-14 03:00:00 24.3 2 Norte 7 Noroeste 0 1015.2 -0.1 66
2019-08-14 02:00:00 24.7 3 Este 10 Nordeste 0 1015.4 0.2 65
2019-08-14 01:00:00 25.3 7 Este 18 Este 0 1015.5 0.8 64
2019-08-14 00:00:00 25.8 11 Este 20 Este 0 1015.3 1.3 65
2019-08-13 23:00:00 26 11 Este 19 Sudeste 0 1015.2 1.8 65
2019-08-13 22:00:00 26 9 Este 19 Este 0 1014.7 1.3 64
2019-08-13 21:00:00 26.2 11 Este 22 Este 0 1014 0.7 65
2019-08-13 20:00:00 26.8 15 Sudeste 30 Sudeste 0 1013.4 0.1 63
2019-08-13 19:00:00 27.8 19 Sudeste 35 Sudeste 0 1013.4 -0.4 59
2019-08-13 18:00:00 28.5 22 Sudeste 40 Sudeste 0 1013.3 -0.7 57
2019-08-13 17:00:00 28.9 24 Sudeste 43 Sudeste 0 1013.3 -1.7 55
2019-08-13 16:00:00 29 24 Sudeste 41 Sudeste 0 1013.8 0.2 55
2019-08-13 15:00:00 29.9 22 Este 43 Sudeste 0 1014 0.5 54
2019-08-13 14:00:00 29.7 26 Sudeste 44 Este 0 1015 1.3 55
2019-08-13 13:00:00 30 27 Sudeste 44 Sudeste 0 1013.6 0.1 54
2019-08-13 12:00:00 30.6 23 Sudeste 41 Sudeste 0 1013.5 0.3 49
2019-08-13 11:00:00 29.2 19 Este 35 Este 0 1013.7 0.9 51
2019-08-13 10:00:00 28.2 17 Este 39 Este 0 1013.5 0.9 51
2019-08-13 09:00:00 27.3 16 Este 36 Nordeste 0 1013.2 1.2 51
2019-08-13 08:00:00 26.3 11 Este 28 Nordeste 0 1012.8 1.1 51
2019-08-13 07:00:00 26.3 11 Nordeste 23 Nordeste 0 1012.6 0.5 51
2019-08-13 06:00:00 26.4 10 Este 21 Nordeste 0 1012 -0.7 60
2019-08-13 05:00:00 26.3 9 Nordeste 18 Nordeste 0 1011.7 -1.5 66
2019-08-13 04:00:00 26.3 10 Este 22 Este 0 1012.1 -1.1 66
2019-08-13 03:00:00 26.5 9 Este 20 Nordeste 0 1012.7 -0.4 64
2019-08-13 02:00:00 26.5 6 Nordeste 14 Este 0 1013.2 0.5 66
2019-08-13 01:00:00 26.6 9 Este 22 Este 0 1013.2 1.4 66
2019-08-13 00:00:00 27 13 Este 27 Sudeste 0 1013.1 2.2 68
2019-08-12 23:00:00 27.1 13 Sudeste 21 Sudeste 0 1012.7 2.4 74
2019-08-12 22:00:00 26.9 9 Sudeste 17 Sudeste 0 1011.8 2 75
2019-08-12 21:00:00 27 9 Sudeste 19 Sudeste 0 1010.9 0.7 73
2019-08-12 20:00:00 28 11 Sudeste 22 Sudeste 0 1010.3 0.3 66
2019-08-12 19:00:00 28.7 14 Sudeste 27 Sudeste 0 1009.8 -0.7 64
2019-08-12 18:00:00 29.1 12 Sudeste 22 Este 0 1010.2 -0.5 63
2019-08-12 17:00:00 28.7 11 Sudeste 23 Sudeste 0 1010 -0.8 66
2019-08-12 16:00:00 29.3 10 Sudeste 26 Sudeste 0 1010.5 -0.3 62
2019-08-12 15:00:00 30.5 14 Sudeste 29 Sudeste 0 1010.7 0.1 56
2019-08-12 14:00:00 31.3 12 Sudeste 25 Sudeste 0 1010.8 0.7 37
2019-08-12 13:00:00 31.6 11 Sur 21 Sudeste 0 1010.8 1.3 43
2019-08-12 12:00:00 30.3 9 Sur 20 Sudeste 0 1010.6 1.4 46
2019-08-12 11:00:00 29.9 11 Sudeste 17 Sudeste 0 1010.1 1.6 51
2019-08-12 10:00:00 29.6 7 Sur 14 Sur 0 1009.5 1.5 48
2019-08-12 09:00:00 27.3 2 Sudoeste 8 Nordeste 0 1009.2 1.6 64
2019-08-12 08:00:00 25.3 5 Norte 11 Nordeste 0 1008.5 1.1 77
2019-08-12 07:00:00 25.2 5 Nordeste 14 Nordeste 0 1008 -0.1 77
2019-08-12 06:00:00 25.2 4 Sudeste 13 Noroeste 0 1007.6 -0.9 70
2019-08-12 05:00:00 24.8 8 Oeste 13 Oeste 0 1007.4 -1.3 75
2019-08-12 04:00:00 25.3 4 Norte 10 Norte 0 1008.1 -1.1 74
2019-08-12 03:00:00 25.3 4 Este 12 Sudeste 0 1008.5 -1 73
2019-08-12 02:00:00 25.2 5 Norte 8 Noroeste 0 1008.7 -1.3 72
2019-08-12 01:00:00 25.3 2 Nordeste 8 Norte 0 1009.2 0.2 72
2019-08-12 00:00:00 25.5 2 Oeste 17 Sur 0 1009.5 1.2 71
2019-08-11 23:00:00 26.6 7 Sudeste 14 Sudeste 0 1010 2.9 70
2019-08-11 22:00:00 27.1 4 Sur 9 Sudeste 0 1009 1.8 69
2019-08-11 21:00:00 27.2 4 Este 18 Sur 0 1008.3 1 66
2019-08-11 20:00:00 28.8 9 Sudeste 19 Sudeste 0 1007.1 -1 59
2019-08-11 19:00:00 29.4 6 Sur 20 Sudeste 0 1007.2 -1.5 55
2019-08-11 18:00:00 30.3 10 Sudeste 18 Sur 0 1007.3 -2 52
2019-08-11 17:00:00 29.9 8 Sur 21 Sur 0 1008.1 -1.5 59
2019-08-11 16:00:00 29.3 12 Sudoeste 21 Sur 0 1008.7 -1.5 65
2019-08-11 15:00:00 29.7 11 Sur 23 Sur 0 1009.3 -1.1 65
2019-08-11 14:00:00 29.9 11 Sur 21 Sudeste 0 1009.6 -0.6 64
2019-08-11 13:00:00 29.7 10 Sur 22 Sudeste 0 1010.2 -0.2 66
2019-08-11 12:00:00 29.5 8 Sur 18 Sur 0 1010.4 0.6 63
2019-08-11 11:00:00 29.7 8 Sur 17 Sur 0 1010.2 0.2 62
2019-08-11 10:00:00 28.7 8 Sur 17 Sudeste 0 1010.4 1 67
2019-08-11 09:00:00 26.9 6 Este 12 Este 0 1009.8 0.5 75
2019-08-11 08:00:00 26 5 Noroeste 9 Noroeste 0 1010 1.2 77
2019-08-11 07:00:00 26.2 5 Nordeste 8 Este 0 1009.4 0.2 77
2019-08-11 06:00:00 26.1 3 Sudeste 8 Nordeste 0 1009.3 -0.3 69
2019-08-11 05:00:00 26.1 6 Nordeste 10 Nordeste 0 1008.8 -2 59
2019-08-11 04:00:00 25.7 3 Norte 6 Noroeste 0 1009.2 -2.1 64
2019-08-11 03:00:00 25.6 3 Norte 8 Nordeste 0 1009.6 -1.6 71
2019-08-11 02:00:00 26.1 3 Noroeste 8 Oeste 0 1010.8 -0.7 80
2019-08-11 01:00:00 27 3 Sudoeste 10 Sudoeste 0 1011.3 1 76
2019-08-11 00:00:00 28 3 Nordeste 9 Sur 0 1011.2 1.2 59
2019-08-10 23:00:00 28.8 5 Sudeste 10 Sur 0 1011.5 1.7 53
2019-08-10 22:00:00 29.5 5 Sudeste 15 Sudeste 0 1010.3 0.3 46
2019-08-10 21:00:00 30.7 8 Sudeste 16 Sudeste 0 1010 -0.4 41
2019-08-10 20:00:00 32.4 9 Este 21 Este 0 1009.8 -1 32
2019-08-10 19:00:00 33.2 11 Sudeste 26 Este 0 1010 -1.3 31
2019-08-10 18:00:00 33 9 Sudeste 17 Sudeste 0 1010.4 -1.1 35
2019-08-10 17:00:00 33.7 9 Sur 17 Sur 0 1010.8 -0.9 31
2019-08-10 16:00:00 32.5 9 Sur 18 Sudeste 0 1011.3 -1 36
2019-08-10 15:00:00 33.1 12 Sur 18 Sudoeste 0 1011.5 -0.8 39
2019-08-10 14:00:00 33.7 9 Sur 14 Sur 0 1011.7 -0.6 34
2019-08-10 13:00:00 32.1 9 Sur 13 Sur 0 1012.3 0.6 40
2019-08-10 12:00:00 31.5 10 Sur 17 Sur 0 1012.3 1.2 48
2019-08-10 11:00:00 29.8 6 Sur 16 Sudoeste 0 1012.3 1.4 62
2019-08-10 10:00:00 30.5 4 Sudoeste 8 Sur 0 1011.7 1.1 49
2019-08-10 09:00:00 28.2 0 Calma 7 Nordeste 0 1011.1 1.2 63
2019-08-10 08:00:00 25 3 Nordeste 8 Norte 0 1010.9 1.5 69
2019-08-10 07:00:00 24.3 6 Norte 9 Noroeste 0 1010.6 0.9 60
2019-08-10 06:00:00 24.4 4 Norte 8 Norte 0 1009.9 0 62
2019-08-10 05:00:00 24.7 3 Norte 7 Norte 0 1009.4 -1 71
2019-08-10 04:00:00 25.2 3 Este 7 Nordeste 0 1009.7 -0.3 75
2019-08-10 03:00:00 25.6 3 Oeste 12 Oeste 0 1009.9 0.2 75
2019-08-10 02:00:00 25.9 5 Noroeste 9 Noroeste 0 1010.4 1 70
2019-08-10 01:00:00 26 0 Calma 9 Oeste 0 1010 1.4 70
2019-08-10 00:00:00 26.3 2 Noroeste 8 Este 0 1009.7 1.7 69
2019-08-09 23:00:00 26.5 7 Este 21 Este 0 1009.4 2.2 69
2019-08-09 22:00:00 27.1 9 Este 14 Sudeste 0 1008.6 1 67
2019-08-09 21:00:00 27.8 8 Este 19 Sudeste 0 1008 0.2 65
2019-08-09 20:00:00 29.1 11 Sudeste 17 Sudeste 0 1007.2 -1.3 60
2019-08-09 19:00:00 29.9 9 Sudeste 23 Sudeste 0 1007.6 -1.6 55
2019-08-09 18:00:00 31 12 Sudeste 18 Sudeste 0 1007.8 -2.3 48
2019-08-09 17:00:00 31 7 Sudeste 19 Sudeste 0 1008.5 -1.8 53
2019-08-09 16:00:00 31.9 6 Sudeste 15 Sudoeste 0 1009.2 -0.9 30
2019-08-09 15:00:00 30.2 10 Sudoeste 19 Sur 0 1010.1 -0.5 56
2019-08-09 14:00:00 31.4 9 Sur 19 Sur 0 1010.3 0.1 46
2019-08-09 13:00:00 32.2 6 Sur 15 Sudeste 0 1010.1 0.2 42
2019-08-09 12:00:00 30.3 9 Sur 14 Sudeste 0 1010.6 1 56
2019-08-09 11:00:00 30.5 5 Sudeste 11 Sur 0 1010.2 0.7 48
2019-08-09 10:00:00 29.3 8 Sur 15 Sur 0 1009.9 0.5 50
2019-08-09 09:00:00 27.5 3 Sur 8 Nordeste 0 1009.6 0.6 48
2019-08-09 08:00:00 23.8 5 Norte 8 Norte 0 1009.5 0.3 51
2019-08-09 07:00:00 23.8 2 Este 10 Nordeste 0 1009.4 0.3 57
2019-08-09 06:00:00 23.8 2 Nordeste 8 Norte 0 1009 -0.3 59
2019-08-09 05:00:00 24.5 3 Nordeste 6 Nordeste 0 1009.2 -0.7 59
2019-08-09 04:00:00 24.7 2 Este 6 Norte 0 1009.1 -0.6 55
2019-08-09 03:00:00 25.1 0 Calma 9 Norte 0 1009.3 -0.5 53
2019-08-09 02:00:00 25.8 5 Norte 9 Norte 0 1009.9 0.1 46
2019-08-09 01:00:00 25.8 2 Noroeste 7 Norte 0 1009.7 1.1 44
2019-08-09 00:00:00 27.4 4 Noroeste 6 Noroeste 0 1009.8 1.4 39
2019-08-08 23:00:00 28.1 3 Oeste 6 Oeste 0 1009.8 1.4 40
2019-08-08 22:00:00 29.5 2 Oeste 6 Noroeste 0 1008.6 0.1 36
2019-08-08 21:00:00 31 2 Oeste 8 Este 0 1008.4 -0.4 29
2019-08-08 20:00:00 31.9 4 Sudeste 10 Sudeste 0 1008.4 -0.6 28
2019-08-08 19:00:00 32.2 3 Sudoeste 12 Sur 0 1008.5 -1 38
2019-08-08 18:00:00 32 6 Sudoeste 14 Sur 0 1008.8 -0.7 38
2019-08-08 17:00:00 32.1 6 Sur 18 Sudoeste 0 1009 -0.8 37
2019-08-08 16:00:00 31.9 12 Sudoeste 20 Sur 0 1009.5 -0.6 51
2019-08-08 15:00:00 34.4 7 Sur 18 Sudeste 0 1009.5 -0.6 29
2019-08-08 14:00:00 33.1 9 Sur 16 Sudeste 0 1009.8 -0.1 32
2019-08-08 13:00:00 33.5 5 Sur 13 Sudoeste 0 1010.1 0.5 27
2019-08-08 12:00:00 32.1 5 Sur 13 Sur 0 1010.1 0.7 38
2019-08-08 11:00:00 30.7 6 Sur 11 Sur 0 1009.9 0.9 52
2019-08-08 10:00:00 29.4 2 Sur 7 Oeste 0 1009.6 1.2 59
2019-08-08 09:00:00 27 0 Calma 7 Norte 0 1009.4 1.8 70
2019-08-08 08:00:00 24.6 2 Este 9 Norte 0 1009 1.5 67
2019-08-08 07:00:00 23.9 7 Norte 9 Norte 0 1008.4 0.8 69
2019-08-08 06:00:00 24.8 5 Nordeste 9 Norte 0 1007.6 0 72
2019-08-08 05:00:00 24.6 4 Norte 8 Norte 0 1007.5 -0.6 74
2019-08-08 04:00:00 24.8 5 Norte 8 Noroeste 0 1007.6 -0.8 75
2019-08-08 03:00:00 25.8 2 Sudeste 10 Nordeste 0 1007.6 -0.8 75
2019-08-08 02:00:00 26.3 2 Sudeste 6 Norte 0 1008.1 -0.3 75
2019-08-08 01:00:00 26.4 3 Norte 6 Norte 0 1008.4 0.9 73
2019-08-08 00:00:00 26.4 4 Este 8 Este 0 1008.4 1.4 74
2019-08-07 23:00:00 26.7 4 Este 10 Sudeste 0 1008.4 2.7 74
2019-08-07 22:00:00 27.1 5 Sudeste 9 Sudeste 0 1007.5 1.7 73
2019-08-07 21:00:00 27.5 4 Sur 10 Sudeste 0 1007 1 67
2019-08-07 20:00:00 28.5 4 Sudeste 12 Sudeste 0 1005.7 -0.5 66
2019-08-07 19:00:00 29.5 4 Sur 13 Sur 0 1005.8 -1 60
2019-08-07 18:00:00 31.3 9 Sudeste 18 Sur 0 1006 -1.4 49
2019-08-07 17:00:00 33.4 8 Sur 14 Sudeste 0 1006.2 -1.6 32
2019-08-07 16:00:00 32.6 3 Sur 14 Sudoeste 0 1006.8 -0.6 47
2019-08-07 15:00:00 30.7 8 Sudoeste 18 Sudoeste 0 1007.4 0.2 51
2019-08-07 14:00:00 30.6 8 Sur 24 Sudoeste 0 1007.8 0.4 53
2019-08-07 13:00:00 31.4 12 Sur 19 Sur 0 1007.4 0 48
2019-08-07 12:00:00 31.4 6 Sur 17 Sur 0 1007.2 0.7 49
2019-08-07 11:00:00 30.7 5 Sur 14 Sudeste 0 1007.4 1.4 53
2019-08-07 10:00:00 28.8 4 Sur 13 Sur 0 1007.4 1.6 60
2019-08-07 09:00:00 27.4 8 Sur 19 Sur 0 1006.5 0.8 54
2019-08-07 08:00:00 24.2 6 Norte 10 Norte 0 1006 0.4 62
2019-08-07 07:00:00 24 3 Nordeste 8 Este 0 1005.8 0.1 64
2019-08-07 06:00:00 24.6 3 Nordeste 8 Este 0 1005.7 -0.4 66
2019-08-07 05:00:00 24.9 4 Este 8 Noroeste 0 1005.6 -0.3 64
2019-08-07 04:00:00 25.6 4 Este 8 Nordeste 0 1005.7 -0.7 64
2019-08-07 03:00:00 26.3 3 Norte 12 Sur 0 1006.1 -0.6 69
2019-08-07 02:00:00 26.1 4 Este 8 Nordeste 0 1005.9 -1.3 68
2019-08-07 01:00:00 26.5 2 Nordeste 14 Este 0 1006.4 -0.6 63
2019-08-07 00:00:00 26.8 7 Este 19 Este 0 1006.7 -0.7 65
2019-08-06 23:00:00 26.8 11 Este 17 Este 0 1007.2 1.4 67
2019-08-06 22:00:00 27.6 4 Sur 11 Sur 0 1007 1.3 58
2019-08-06 21:00:00 28.1 4 Sur 15 Sudoeste 0 1007.4 1.4 56
2019-08-06 20:00:00 29.3 8 Sudeste 13 Sudeste 0 1005.8 -0.7 53
2019-08-06 19:00:00 30.8 6 Sudoeste 19 Sur 0 1005.7 -1.7 34
2019-08-06 18:00:00 30.4 7 Sudeste 16 Sudeste 0 1006 -2.3 45
2019-08-06 17:00:00 30.5 8 Sur 17 Sudoeste 0 1006.5 -2.5 51
2019-08-06 16:00:00 30.2 9 Sur 21 Sudoeste 0 1007.4 -1.8 55
2019-08-06 15:00:00 30.8 8 Sur 21 Sudeste 0 1008.3 -1.4 48
2019-08-06 14:00:00 30.1 7 Sur 21 Sudeste 0 1009 -0.9 56
2019-08-06 13:00:00 29.8 10 Sudeste 17 Sudeste 0 1009.2 -0.4 53
2019-08-06 12:00:00 29.9 10 Sur 19 Sudeste 0 1009.7 -0.2 51
2019-08-06 11:00:00 28.7 10 Sudeste 21 Sudeste 0 1009.9 0.2 58
2019-08-06 10:00:00 28.5 3 Sudeste 9 Noroeste 0 1009.6 0.5 60
2019-08-06 09:00:00 26.5 3 Norte 8 Nordeste 0 1009.9 0.9 71
2019-08-06 08:00:00 25 3 Norte 7 Norte 0 1009.7 0.9 75
2019-08-06 07:00:00 24.9 2 Este 9 Este 0 1009.1 0.2 78
2019-08-06 06:00:00 25.2 5 Sudeste 13 Sudeste 0 1009 -0.7 76
2019-08-06 05:00:00 24.5 2 Oeste 9 Sudoeste 0 1008.8 -1 73
2019-08-06 04:00:00 25.2 4 Norte 10 Norte 0 1008.9 -1.1 78
2019-08-06 03:00:00 25.5 5 Oeste 8 Oeste 0 1009.7 -0.3 78
2019-08-06 02:00:00 25.7 3 Noroeste 6 Noroeste 0 1009.8 -0.3 78
2019-08-06 01:00:00 25.7 4 Oeste 8 Oeste 0 1010 0.5 78
2019-08-06 00:00:00 26 5 Oeste 8 Oeste 0 1010 0.9 76
2019-08-05 23:00:00 26.2 5 Oeste 10 Sudoeste 0 1010.1 1.5 73
2019-08-05 22:00:00 26.5 5 Oeste 13 Sur 0 1009.5 1.9 74
2019-08-05 21:00:00 27.2 6 Sudoeste 15 Sur 0 1009.1 0.9 72
2019-08-05 20:00:00 27.9 9 Sudeste 17 Sudeste 0 1008.6 -0.2 69
2019-08-05 19:00:00 29.2 6 Sur 18 Sur 0 1007.6 -1.6 58
2019-08-05 18:00:00 29.5 8 Sur 19 Sudeste 0 1008.2 -1.3 57
2019-08-05 17:00:00 30.1 10 Sur 21 Sudoeste 0 1008.8 -1.1 50
2019-08-05 16:00:00 29.9 11 Sur 24 Sur 0 1009.2 -1.3 52
2019-08-05 15:00:00 30.8 11 Sur 30 Sudeste 0 1009.5 -1.4 49
2019-08-05 14:00:00 29.9 15 Sudeste 25 Sudeste 0 1009.9 -1 54
2019-08-05 13:00:00 30.4 14 Sudeste 23 Sudeste 0 1010.5 -0.6 51
2019-08-05 12:00:00 30.2 9 Sudeste 14 Sudeste 0 1010.9 -0.2 55
2019-08-05 11:00:00 28.8 6 Sur 12 Sudeste 0 1010.9 0 60
2019-08-05 10:00:00 27.1 5 Sur 9 Sur 0 1011.1 0.4 70
2019-08-05 09:00:00 26.3 4 Sur 12 Sur 0 1011.1 1 72
2019-08-05 08:00:00 25.7 7 Sur 13 Sur 0 1010.9 1.2 74
2019-08-05 07:00:00 25.5 6 Sur 13 Sur 0 1010.7 1.6 78
2019-08-05 06:00:00 25.5 5 Sur 14 Sur 0 1010.1 0.1 79
2019-08-05 05:00:00 25.6 7 Sur 15 Sudeste 0 1009.7 -0.9 76
2019-08-05 04:00:00 25.1 2 Norte 8 Nordeste 0 1009.1 -1.9 65
2019-08-05 03:00:00 25.5 3 Norte 6 Nordeste 0 1010 -1.4 67
2019-08-05 02:00:00 25.8 0 Calma 7 Sudeste 0 1010.6 -0.7 73
2019-08-05 01:00:00 26.1 2 Norte 5 Norte 0 1011 0.9 65
2019-08-05 00:00:00 26.2 2 Oeste 8 Sudoeste 0 1011.4 2.4 69
2019-08-04 23:00:00 26.4 3 Sudoeste 10 Sudoeste 0 1011.3 2.4 67
2019-08-04 22:00:00 26.7 5 Sudoeste 13 Sur 0 1010.1 0.8 67
2019-08-04 21:00:00 27.4 6 Sudoeste 11 Sur 0 1009 1 61
2019-08-04 20:00:00 28.3 6 Sur 17 Sur 0 1008.9 -0.2 59
2019-08-04 19:00:00 28.7 9 Sudoeste 19 Sur 0 1009.3 0 58
2019-08-04 18:00:00 28.9 9 Sudoeste 21 Sur 0 1008 -1.7 61
2019-08-04 17:00:00 29.4 10 Sudoeste 22 Sudoeste 0 1009.1 -0.8 57
2019-08-04 16:00:00 29.4 13 Sur 23 Sur 0 1009.3 -1.2 61
2019-08-04 15:00:00 29.7 13 Sur 21 Sur 0 1009.7 -1.9 55
2019-08-04 14:00:00 29.7 9 Sudeste 19 Sudeste 0 1009.9 -1.6 56
2019-08-04 13:00:00 29.4 10 Sur 21 Sur 0 1010.5 -0.8 62
2019-08-04 12:00:00 29.2 8 Sur 19 Sudeste 0 1011.6 0.6 60
2019-08-04 11:00:00 27.2 9 Sur 15 Sudoeste 0 1011.5 1.2 70
2019-08-04 10:00:00 26.3 8 Sudoeste 16 Sur 0 1011.3 1.5 77
2019-08-04 09:00:00 25.8 9 Sur 16 Sur 0 1011 2.1 78
2019-08-04 08:00:00 25.6 6 Sur 14 Sudeste 0 1010.3 1.4 80
2019-08-04 07:00:00 24.5 6 Este 12 Este 0 1009.8 0.3 79
2019-08-04 06:00:00 24.7 6 Este 13 Nordeste 0 1008.9 -1 77
2019-08-04 05:00:00 25.1 2 Sudeste 14 Noroeste 0 1008.9 -1.7 75
2019-08-04 04:00:00 25.7 9 Oeste 21 Noroeste 0 1009.5 -1.7 71
2019-08-04 03:00:00 25.4 8 Noroeste 16 Noroeste 0 1009.9 -1.4 74
2019-08-04 02:00:00 25.6 6 Oeste 14 Sudoeste 0 1010.6 -0.3 75
2019-08-04 01:00:00 25.8 8 Sudoeste 14 Sudoeste 0 1011.2 1.4 77
2019-08-04 00:00:00 25.9 7 Sur 14 Sur 0 1011.3 2.5 76
2019-08-03 23:00:00 25.9 7 Sudeste 12 Sudeste 0 1010.9 2 76
2019-08-03 22:00:00 25.8 9 Sudeste 14 Sudeste 0 1009.8 0.5 74
2019-08-03 21:00:00 26.4 5 Sudeste 12 Sudeste 0 1008.8 -0.7 71
2019-08-03 20:00:00 27.5 6 Sudeste 14 Sur 0 1008.9 -1.2 66
2019-08-03 19:00:00 28 9 Sur 21 Sudeste 0 1009.3 -1.5 65
2019-08-03 18:00:00 27.6 11 Sudeste 27 Sudeste 0 1009.5 -2.4 68
2019-08-03 17:00:00 27.8 15 Sudeste 26 Sudeste 0 1010.1 -1 67
2019-08-03 16:00:00 28.9 14 Sudeste 28 Este 0 1010.8 -0.4 63
2019-08-03 15:00:00 29.4 14 Sudeste 26 Sudeste 0 1011.9 0.6 60
2019-08-03 14:00:00 29.2 13 Sur 24 Sudeste 0 1011.1 -0.1 59
2019-08-03 13:00:00 29 9 Sur 22 Sudeste 0 1011.2 -0.3 58
2019-08-03 12:00:00 29.4 10 Sur 24 Sur 0 1011.3 -0.7 56
2019-08-03 11:00:00 28.7 14 Sudeste 24 Sudeste 0 1011.2 -0.1 58
2019-08-03 10:00:00 27.5 4 Norte 11 Norte 0 1011.5 0.6 59
2019-08-03 09:00:00 26.3 5 Oeste 8 Oeste 0 1012 1.7 69
2019-08-03 08:00:00 24.2 4 Noroeste 9 Norte 0 1011.3 1.2 73
2019-08-03 07:00:00 23.8 4 Norte 8 Nordeste 0 1010.9 0.5 66
2019-08-03 06:00:00 23.8 0 Calma 5 Norte 0 1010.3 -0.4 63
2019-08-03 05:00:00 24.2 3 Norte 6 Noroeste 0 1010.1 -0.6 61
2019-08-03 04:00:00 24.3 3 Noroeste 9 Nordeste 0 1010.4 -0.7 63
2019-08-03 03:00:00 24.9 6 Nordeste 9 Nordeste 0 1010.7 -1 63
2019-08-03 02:00:00 25.1 2 Sudoeste 7 Nordeste 0 1010.7 -1 67
2019-08-03 01:00:00 25.5 4 Norte 9 Noroeste 0 1011.1 0.1 73
2019-08-03 00:00:00 25.4 4 Oeste 9 Oeste 0 1011.7 1.9 75
2019-08-02 23:00:00 25.9 3 Sudoeste 14 Sur 0 1011.7 2.4 74
2019-08-02 22:00:00 26.2 7 Sur 12 Sur 0 1011 1.5 73
2019-08-02 21:00:00 27 6 Sudeste 11 Sur 0 1009.8 0.3 64
2019-08-02 20:00:00 28.2 5 Sudeste 13 Sudeste 0 1009.3 -0.5 59
2019-08-02 19:00:00 28.5 8 Sur 19 Sur 0 1009.5 -1.7 59
2019-08-02 18:00:00 29 9 Sudeste 20 Sur 0 1009.5 -2.5 58
2019-08-02 17:00:00 30 10 Sur 16 Sur 0 1009.8 -2.3 50
2019-08-02 16:00:00 29.4 8 Sur 20 Sudeste 0 1011.2 -1.3 55
2019-08-02 15:00:00 28.6 10 Sudeste 26 Sur 0 1012 0.4 61
2019-08-02 14:00:00 28.4 13 Sudeste 26 Sudeste 0 1012.1 1 60
2019-08-02 13:00:00 28.2 13 Sudeste 23 Sudeste 0 1012.5 1.1 62
2019-08-02 12:00:00 28.1 13 Sudeste 23 Sudeste 0 1011.6 1.5 63
2019-08-02 11:00:00 27.8 12 Sudeste 21 Sudeste 0 1011.1 1.8 63
2019-08-02 10:00:00 27.5 5 Sur 13 Sur 0 1011.4 1.8 64
2019-08-02 09:00:00 26.5 5 Sudeste 10 Sur 0 1010.1 1.7 65
2019-08-02 08:00:00 24.3 0 Calma 8 Norte 0 1009.3 0.5 72
2019-08-02 07:00:00 24.1 4 Nordeste 12 Noroeste 0 1009.6 0 74
2019-08-02 06:00:00 24 4 Este 10 Noroeste 0 1008.4 -1.6 74
2019-08-02 05:00:00 23.9 6 Oeste 11 Noroeste 0 1008.8 -0.7 78
2019-08-02 04:00:00 24.5 5 Noroeste 9 Sudoeste 0 1009.6 0.2 78
2019-08-02 03:00:00 24.9 4 Sudoeste 13 Sudeste 0 1010 -0.4 72
2019-08-02 02:00:00 25.2 5 Sur 15 Noroeste 0 1009.5 -1.1 69
2019-08-02 01:00:00 25.1 7 Norte 11 Noroeste 0 1009.4 -0.1 73
2019-08-02 00:00:00 25.4 4 Oeste 8 Oeste 0 1010.4 1.5 73
2019-08-01 23:00:00 25.6 4 Sudoeste 13 Sur 0 1010.6 2.2 73
2019-08-01 22:00:00 25.7 4 Sudoeste 9 Sudoeste 0 1009.5 1.8 69
2019-08-01 21:00:00 26.4 3 Sudoeste 13 Sur 0 1008.9 0.8 66
2019-08-01 20:00:00 27.2 8 Sur 16 Sur 0 1008.4 1.5 63
2019-08-01 19:00:00 28 8 Sur 23 Sur 0 1007.7 0 60
2019-08-01 18:00:00 28.1 11 Sudeste 21 Sur 0 1008.1 -0.9 59
2019-08-01 17:00:00 28.5 10 Sudeste 24 Sur 0 1006.9 -2.3 57
2019-08-01 16:00:00 29.8 11 Sur 21 Sur 0 1007.7 -2 49
2019-08-01 15:00:00 29.3 10 Sudeste 24 Sur 0 1009 0.6 49
2019-08-01 14:00:00 29.4 12 Sur 21 Sudeste 0 1009.2 -0.8 42
2019-08-01 13:00:00 27.7 9 Sudeste 25 Sur 0 1009.7 0.2 52
2019-08-01 12:00:00 29.1 14 Sudeste 25 Sudeste 0 1008.4 -0.3 41
2019-08-01 11:00:00 28.4 8 Sur 17 Sudoeste 0 1010 0.8 41
2019-08-01 10:00:00 28 7 Sur 12 Sur 0 1009.5 -0.1 41
2019-08-01 09:00:00 26.8 0 Calma 13 Norte 0 1008.7 -0.1 45
2019-08-01 08:00:00 24.9 5 Norte 14 Norte 0 1009.2 -0.4 49
2019-08-01 07:00:00 23.8 3 Noroeste 12 Norte 0 1009.6 0.2 57
2019-08-01 06:00:00 24.3 5 Norte 13 Nordeste 0 1008.8 -0.9 56
2019-08-01 05:00:00 25 3 Nordeste 15 Nordeste 0 1009.6 -0.2 57
2019-08-01 04:00:00 25.2 5 Este 13 Nordeste 0 1009.4 0 54
2019-08-01 03:00:00 25.6 4 Este 14 Nordeste 0 1009.7 -0.1 52
2019-08-01 02:00:00 26 5 Este 27 Este 0 1009.8 0.4 50
2019-08-01 01:00:00 26.2 14 Nordeste 27 Nordeste 0 1009.4 -0.6 51
2019-08-01 00:00:00 26.4 15 Nordeste 33 Este 0 1009.8 0.5 55
2019-07-31 23:00:00 26.5 15 Este 35 Este 0 1009.4 1.3 55
2019-07-31 22:00:00 26.9 12 Este 39 Este 0 1010 2.1 52
2019-07-31 21:00:00 27.6 21 Este 42 Este 0 1009.3 1.2 51
2019-07-31 20:00:00 29.7 20 Este 33 Este 0 1008.1 -0.2 38
2019-07-31 19:00:00 30.6 22 Este 47 Este 0 1007.9 -1.5 37
2019-07-31 18:00:00 31.1 22 Este 50 Este 0 1008.1 -1.4 34
2019-07-31 17:00:00 31.1 28 Este 45 Este 0 1008.3 -3.4 39
2019-07-31 16:00:00 30.8 24 Este 49 Este 0 1009.4 -2.3 43
2019-07-31 15:00:00 30.1 22 Este 46 Este 0 1009.5 -2.2 49
2019-07-31 14:00:00 31 25 Este 46 Sudeste 0 1011.7 0.3 44
2019-07-31 13:00:00 30.1 24 Este 40 Este 0 1011.7 -0.6 45
2019-07-31 12:00:00 29 18 Este 51 Este 0 1011.7 1.5 49
2019-07-31 11:00:00 27.4 22 Este 41 Nordeste 0 1011.4 0.9 53
2019-07-31 10:00:00 27.1 14 Nordeste 27 Nordeste 0 1012.3 2.2 52
2019-07-31 09:00:00 26.7 18 Nordeste 36 Nordeste 0 1010.2 1 53
2019-07-31 08:00:00 25.9 10 Nordeste 32 Nordeste 0 1010.5 0.6 59
2019-07-31 07:00:00 25.8 13 Nordeste 41 Este 0 1010.1 -1.4 61
2019-07-31 06:00:00 25.9 15 Sudeste 26 Sudeste 0 1009.2 -1.7 57
2019-07-31 05:00:00 25.1 6 Este 12 Este 0 1009.9 -1.8 58
2019-07-31 04:00:00 24.3 5 Noroeste 12 Este 0 1011.5 0.6 54
2019-07-31 03:00:00 24.5 6 Nordeste 13 Nordeste 0 1010.9 0.2 61
2019-07-31 02:00:00 24.6 3 Noroeste 9 Norte 0 1011.7 1.5 69
2019-07-31 01:00:00 25.5 3 Norte 15 Este 0 1010.9 1.5 64
2019-07-31 00:00:00 25.6 11 Este 18 Este 0 1010.7 2.1 70
2019-07-30 23:00:00 25.8 5 Este 16 Este 0 1010.2 1.5 70
2019-07-30 22:00:00 26 9 Este 21 Este 0 1009.4 0.8 67
2019-07-30 21:00:00 26.7 8 Este 26 Este 0 1008.6 -0.4 62
2019-07-30 20:00:00 27.1 11 Este 24 Sudeste 0 1008.7 -0.8 63
2019-07-30 19:00:00 28.1 14 Sudeste 27 Sudeste 0 1008.6 -1.4 59
2019-07-30 18:00:00 27.7 15 Sudeste 29 Sudeste 0 1009 -0.6 64
2019-07-30 17:00:00 29.2 17 Este 32 Sudeste 0 1009.5 -0.5 58
2019-07-30 16:00:00 28.9 17 Sudeste 27 Sudeste 0 1010 0.6 57
2019-07-30 15:00:00 29.2 10 Sur 20 Sur 0 1009.6 0.5 54
2019-07-30 14:00:00 28.4 10 Sur 22 Sur 0 1010 0.9 59
2019-07-30 13:00:00 28.3 10 Sur 20 Sudeste 0 1009.4 0.2 59
2019-07-30 12:00:00 28.6 10 Sur 15 Sudeste 0 1009.1 0 59
2019-07-30 11:00:00 28.7 5 Sur 11 Sudeste 0 1009.1 0.5 59
2019-07-30 10:00:00 27.5 6 Sudeste 12 Sudeste 0 1009.2 0.9 61
2019-07-30 09:00:00 26.4 3 Sur 5 Sur 0 1009.1 1 62
2019-07-30 08:00:00 23.5 2 Norte 6 Nordeste 0 1008.6 0.5 68
2019-07-30 07:00:00 22.8 3 Nordeste 6 Norte 0 1008.3 0 74
2019-07-30 06:00:00 23.1 4 Norte 6 Norte 0 1008.1 0.2 74
2019-07-30 05:00:00 23.5 4 Norte 9 Nordeste 0 1008.1 0.3 75
2019-07-30 04:00:00 23.6 4 Este 12 Este 0 1008.3 0.2 76
2019-07-30 03:00:00 23.6 6 Este 10 Este 0 1007.9 -0.1 73
2019-07-30 02:00:00 23.9 6 Este 9 Este 0 1007.8 -0.2 71
2019-07-30 01:00:00 24.1 5 Este 8 Este 0 1008.1 0.9 70
2019-07-30 00:00:00 24.5 5 Este 9 Este 0 1008 1.3 68
2019-07-29 23:00:00 24.8 5 Sudeste 10 Sudeste 0 1008 1.4 68
2019-07-29 22:00:00 25.2 6 Sudeste 10 Este 0 1007.2 0.7 65
2019-07-29 21:00:00 26.2 5 Sudeste 10 Sudeste 0 1006.7 -0.2 59
2019-07-29 20:00:00 27.1 6 Sudeste 12 Sudeste 0 1006.6 -0.6 58
2019-07-29 19:00:00 27.5 7 Sur 14 Sur 0 1006.5 -1.2 53
2019-07-29 18:00:00 27.4 8 Sur 17 Este 0 1006.9 -1.1 55
2019-07-29 17:00:00 27.1 8 Sudeste 19 Sudeste 0 1007.2 -1.1 58
2019-07-29 16:00:00 27.7 10 Sur 21 Sur 0 1007.7 -0.9 59
2019-07-29 15:00:00 27.3 10 Sur 25 Sudeste 0 1008 -1.2 58
2019-07-29 14:00:00 27.4 10 Sur 22 Sudeste 0 1008.3 -0.4 58
2019-07-29 13:00:00 26.7 11 Sur 21 Sudeste 0 1008.6 0.1 61
2019-07-29 12:00:00 26.8 10 Sur 18 Sudeste 0 1009.2 1.2 61
2019-07-29 11:00:00 26.1 8 Sur 17 Sur 0 1008.7 1.2 66
2019-07-29 10:00:00 26.2 6 Sur 13 Sudeste 0 1008.5 1.1 65
2019-07-29 09:00:00 25.1 4 Sur 10 Sudeste 0 1008 0.8 69
2019-07-29 08:00:00 23.2 2 Este 7 Nordeste 0 1007.5 0.4 74
2019-07-29 07:00:00 22.1 3 Nordeste 8 Nordeste 0 1007.4 0.3 75
2019-07-29 06:00:00 22.1 0 Calma 5 Noroeste 0 1007.2 0.1 76
2019-07-29 05:00:00 22.6 2 Noroeste 5 Noroeste 0 1007.1 -0.3 78
2019-07-29 04:00:00 22.8 4 Noroeste 5 Noroeste 0 1007.1 -0.4 79
2019-07-29 03:00:00 23.1 4 Noroeste 8 Noroeste 0 1007.1 -0.3 77
2019-07-29 02:00:00 23.4 4 Oeste 7 Oeste 0 1007.4 0 76
2019-07-29 01:00:00 23.7 2 Sudoeste 9 Sudoeste 0 1007.5 0.7 74
2019-07-29 00:00:00 23.8 3 Sudoeste 6 Sudoeste 0 1007.4 1.1 71
2019-07-28 23:00:00 24 5 Oeste 9 Oeste 0 1007.4 1.4 72
2019-07-28 22:00:00 24.4 4 Sur 10 Sur 0 1006.8 0.4 72
2019-07-28 21:00:00 25.3 5 Sudeste 11 Sudeste 0 1006.3 0.3 68
2019-07-28 20:00:00 26.4 6 Sur 13 Sudeste 0 1006 -0.8 61
2019-07-28 19:00:00 28.1 5 Sudoeste 13 Sudoeste 0 1006.4 -0.4 47
2019-07-28 18:00:00 27.4 7 Sur 18 Sur 0 1006 -1.2 57
2019-07-28 17:00:00 27.7 10 Sudoeste 17 Sur 0 1006.8 -0.8 56
2019-07-28 16:00:00 28 8 Sudoeste 20 Sudoeste 0 1006.8 -0.3 55
2019-07-28 15:00:00 28.3 8 Sudoeste 18 Sur 0 1007.2 0.2 55
2019-07-28 14:00:00 28.2 9 Sur 24 Sur 0 1007.6 0.9 57
2019-07-28 13:00:00 28.3 8 Sudoeste 22 Sur 0 1007.1 0.6 55
2019-07-28 12:00:00 28.2 12 Sur 20 Sudoeste 0 1007 -0.1 58
2019-07-28 11:00:00 28.6 9 Sudeste 17 Sudeste 0 1006.7 0.8 49
2019-07-28 10:00:00 29 9 Sudeste 16 Sudeste 0 1006.5 1.2 45
2019-07-28 09:00:00 29.1 4 Sudeste 8 Sudeste 0 1007.1 2.1 30
2019-07-28 08:00:00 25.4 5 Oeste 11 Noroeste 0 1005.9 1.2 39
2019-07-28 07:00:00 24.3 10 Noroeste 15 Noroeste 0 1005.3 0.6 40
2019-07-28 06:00:00 24.5 6 Noroeste 9 Noroeste 0 1005 0.3 40
2019-07-28 05:00:00 25.6 3 Noroeste 8 Noroeste 0 1004.7 0.2 38
2019-07-28 04:00:00 27.2 3 Noroeste 17 Noroeste 0 1004.7 0.2 33
2019-07-28 03:00:00 28.7 8 Norte 19 Noroeste 0 1004.7 0.1 30
2019-07-28 02:00:00 29.1 11 Noroeste 27 Noroeste 0 1004.5 1.2 30
2019-07-28 01:00:00 29 12 Noroeste 29 Noroeste 0 1004.5 2.3 30
2019-07-28 00:00:00 29.6 10 Noroeste 33 Noroeste 0 1004.6 3.1 29
2019-07-27 23:00:00 30.9 16 Noroeste 41 Noroeste 0 1003.3 2.5 25
2019-07-26 12:00:00 28.2 12 Sur 21 Sudeste 0 1007.6 -0.4 62
2019-07-26 11:00:00 28 11 Sur 19 Sudeste 0 1007.6 -0.4 63
2019-07-26 10:00:00 28.2 8 Sudeste 15 Sudeste 0 1007.6 -0.2 63
2019-07-26 09:00:00 26.8 7 Este 14 Nordeste 0 1008 0.3 68
2019-07-26 08:00:00 25 4 Nordeste 8 Nordeste 0 1008 0.1 77
2019-07-26 07:00:00 24.3 5 Nordeste 9 Nordeste 0 1007.8 -0.6 79
2019-07-26 06:00:00 24.3 3 Norte 7 Oeste 0 1007.7 -1.1 80
2019-07-26 05:00:00 24.5 3 Oeste 9 Oeste 0 1007.9 -1.6 80
2019-07-26 04:00:00 24.9 4 Oeste 9 Oeste 0 1008.4 -1.7 79
2019-07-26 03:00:00 25.3 6 Oeste 12 Oeste 0 1008.8 -1.4 77
2019-07-26 02:00:00 25.8 4 Sudoeste 11 Sudoeste 0 1009.5 -0.6 74
2019-07-26 01:00:00 25.9 4 Oeste 9 Sudoeste 0 1010.1 0.7 75
2019-07-26 00:00:00 26 4 Sudoeste 12 Sur 0 1010.2 1.2 76
2019-07-25 23:00:00 26.2 5 Sur 9 Sur 0 1010.1 1.3 76
2019-07-25 22:00:00 25.9 5 Sudeste 10 Sudeste 0 1009.4 0.6 76
2019-07-25 21:00:00 26.7 5 Sur 14 Sur 0 1009 0.8 73
2019-07-25 20:00:00 27.8 8 Sur 18 Sur 0 1008.8 -0.6 68
2019-07-25 19:00:00 28.3 10 Sur 22 Sudeste 0 1008.8 -1.1 66
2019-07-25 18:00:00 29 13 Sudeste 26 Sur 0 1008.2 -1.9 63
2019-07-25 17:00:00 29.3 14 Sur 27 Sur 0 1009.4 -0.9 59
2019-07-25 16:00:00 30.1 14 Sudeste 28 Sudeste 0 1009.9 -0.2 53
2019-07-25 15:00:00 30.6 10 Sur 23 Sur 0 1010.1 -0.2 49
2019-07-25 14:00:00 31.1 14 Sudoeste 24 Sur 0 1010.3 -0.1 46
2019-07-25 13:00:00 33.1 12 Sudeste 35 Sudeste 0 1010.1 -0.2 28
2019-07-25 12:00:00 34.5 14 Sudeste 30 Sudeste 0 1010.3 0 21
2019-07-25 11:00:00 32.9 8 Sudeste 17 Sudeste 0 1010.4 0.5 24
2019-07-25 10:00:00 32.1 6 Sur 8 Sur 0 1010.3 1 24
2019-07-25 09:00:00 29.9 2 Nordeste 6 Este 0 1010.3 1.3 29
2019-07-25 08:00:00 25.8 0 Calma 9 Nordeste 0 1009.9 0.2 37
2019-07-25 07:00:00 25.3 4 Norte 8 Norte 0 1009.3 0 35
2019-07-25 06:00:00 26.7 6 Nordeste 13 Nordeste 0 1009 -1.4 31
2019-07-25 05:00:00 24.5 0 Calma 9 Noroeste 0 1009.7 -1.2 41
2019-07-25 04:00:00 26.1 7 Nordeste 13 Norte 0 1009.3 -- 38
2019-07-25 03:00:00 24.6 5 Norte 9 Norte 0 1010.4 -- 51
2019-07-25 02:00:00 25.1 4 Este -- -- -- 1010.9 -- 67
2019-07-25 01:00:00 -- -- -- -- -- -- -- -- --
2019-07-25 00:00:00 -- -- -- -- -- -- -- -- --
2019-07-24 23:00:00 -- -- -- -- -- -- -- -- --
2019-07-24 22:00:00 -- -- -- -- -- -- -- -- --
2019-07-24 21:00:00 -- -- -- -- -- -- -- -- --
2019-07-24 20:00:00 -- -- -- -- -- -- -- -- --
2019-07-24 19:00:00 -- -- -- -- -- -- -- -- --
2019-07-24 18:00:00 -- -- -- -- -- -- -- -- --
2019-07-24 17:00:00 -- -- -- -- -- -- -- -- --
2019-07-24 16:00:00 -- -- -- -- -- -- -- -- --
2019-07-24 15:00:00 -- -- -- -- -- -- -- -- --
2019-07-24 14:00:00 -- -- -- -- -- -- -- -- --
2019-07-24 13:00:00 -- -- -- -- -- -- -- -- --
2019-07-24 12:00:00 -- -- -- -- -- -- -- -- --
2019-07-24 11:00:00 -- -- -- -- -- -- -- -- --
2019-07-24 10:00:00 -- -- -- -- -- -- -- -- --
2019-07-24 09:00:00 -- -- -- -- -- -- -- -- --
2019-07-24 08:00:00 -- -- -- -- -- -- -- -- --
2019-07-24 07:00:00 -- -- -- -- -- -- -- -- --
2019-07-24 06:00:00 -- -- -- -- -- -- -- -- --
2019-07-24 05:00:00 25.4 5 Nordeste 10 Este 0 1010.5 -1.3 32
2019-07-24 04:00:00 25 4 Nordeste -- -- -- 1011.3 -0.8 33
2019-07-24 03:00:00 25.7 0 Calma 8 Este 0 1011.6 -0.4 35
2019-07-24 02:00:00 26.8 4 Norte 8 Norte 0 1011.8 -0.1 32
2019-07-24 01:00:00 27 2 Este 5 Nordeste 0 1012.1 0.8 37
2019-07-24 00:00:00 27.6 0 Calma 7 Noroeste 0 1012 1.3 45
2019-07-23 23:00:00 28.5 4 Noroeste 10 Nordeste 0 1011.9 1.2 41
2019-07-23 22:00:00 29.5 8 Nordeste 17 Nordeste 0 1011.3 0.5 36
2019-07-23 21:00:00 30.2 10 Este 21 Este 0 1010.7 -0.3 37
2019-07-23 20:00:00 31.6 13 Este 28 Este 0 1010.7 -0.3 35
2019-07-23 19:00:00 33 11 Sudeste 26 Este 0 1010.8 -0.8 33
2019-07-23 18:00:00 33.9 14 Sudeste 30 Sudeste 0 1011 -1.2 31
2019-07-23 17:00:00 34.7 21 Sudeste 31 Sudeste 0 1011 -1.5 27
2019-07-23 16:00:00 34.9 16 Sudeste 32 Sudeste 0 1011.6 -1 28
2019-07-23 15:00:00 34.2 18 Sudeste 32 Sudeste 0 1012.2 -0.5 30
2019-07-23 14:00:00 34 17 Sudeste 35 Sudeste 0 1012.5 -0.3 28
2019-07-23 13:00:00 36 17 Sudeste 34 Sudeste 0 1012.6 -0.1 20
2019-07-23 12:00:00 35.8 13 Este 33 Este 0 1012.7 -0.6 17
2019-07-23 11:00:00 34.8 12 Este 24 Nordeste 0 1012.8 0.1 12
2019-07-23 10:00:00 33.2 9 Este 18 Este 0 1012.7 -0.3 16
2019-07-23 09:00:00 29 4 Oeste 9 Sudoeste 0 1013.3 0.6 27
2019-07-23 08:00:00 26.1 3 Nordeste 12 Nordeste 0 1012.7 -0.1 30
2019-07-23 07:00:00 24.1 4 Este 8 Oeste 0 1013 -0.4 33
2019-07-23 06:00:00 24.1 6 Noroeste 11 Noroeste 0 1012.7 -1.2 35
2019-07-23 05:00:00 25 3 Norte 8 Nordeste 0 1012.8 -1.3 37
2019-07-23 04:00:00 26 4 Nordeste 8 Nordeste 0 1013.4 -1.1 39
2019-07-23 03:00:00 26.2 5 Este 8 Este 0 1013.9 -0.8 39
2019-07-23 02:00:00 26.5 4 Noroeste 8 Sudoeste 0 1014.1 -0.5 42
2019-07-23 01:00:00 28.1 3 Noroeste 10 Este 0 1014.5 0 40
2019-07-23 00:00:00 29.1 4 Nordeste 16 Nordeste 0 1014.7 0.8 38
2019-07-22 23:00:00 29.7 8 Nordeste 22 Este 0 1014.6 0.8 36
2019-07-22 22:00:00 29.7 8 Este 20 Este 0 1014.5 1.1 38
2019-07-22 21:00:00 30.3 13 Este 29 Este 0 1013.9 0.1 41
2019-07-22 20:00:00 30.8 18 Este 37 Este 0 1013.8 -0.6 43
2019-07-22 19:00:00 31.3 23 Este 37 Este 0 1013.4 -1.6 44
2019-07-22 18:00:00 30.6 15 Sudeste 33 Sudeste 0 1013.8 -1.6 52
2019-07-22 17:00:00 31.4 17 Sudeste 41 Este 0 1014.4 -1.2 47
2019-07-22 16:00:00 31.5 18 Este 42 Este 0 1015 -1.2 47
2019-07-22 15:00:00 31 22 Sudeste 44 Este 0 1015.4 -1.2 50
2019-07-22 14:00:00 32.3 19 Sudeste 40 Este 0 1015.6 -0.9 44
2019-07-22 13:00:00 31.6 19 Este 31 Sudeste 0 1016.2 -0.2 45
2019-07-22 12:00:00 30.5 16 Sudeste 32 Sudeste 0 1016.6 0.4 43
2019-07-22 11:00:00 31.2 14 Sudeste 28 Este 0 1016.5 0.9 36
2019-07-22 10:00:00 30.7 13 Este 32 Este 0 1016.4 1.3 33
2019-07-22 09:00:00 29.5 15 Este 30 Este 0 1016.2 1.7 35
2019-07-22 08:00:00 25.9 2 Oeste 7 Oeste 0 1015.6 1 42
2019-07-22 07:00:00 26 4 Noroeste 16 Este 0 1015.1 0 41
2019-07-22 06:00:00 25.1 3 Este 9 Este 0 1014.5 -1 47
2019-07-22 05:00:00 24.6 2 Oeste 6 Oeste 0 1014.6 -0.9 56
2019-07-22 04:00:00 25.2 4 Norte 9 Norte 0 1015.1 -0.4 60
2019-07-22 03:00:00 25.6 2 Noroeste 13 Sudoeste 0 1015.5 -0.4 61
2019-07-22 02:00:00 26.1 5 Sudoeste 11 Sudoeste 0 1015.5 -1.1 60
2019-07-22 01:00:00 26.8 2 Sudoeste 13 Sudeste 0 1015.5 -0.2 59
2019-07-22 00:00:00 26.7 4 Sudoeste 22 Sudeste 0 1015.9 1.4 65
2019-07-21 23:00:00 26.5 10 Sudeste 20 Sudeste 0 1016.6 3.8 70
2019-07-21 22:00:00 27.9 9 Sudeste 26 Este 0 1015.7 3 60
2019-07-21 21:00:00 28.9 14 Este 34 Este 0 1014.5 1.8 55
2019-07-21 20:00:00 30 21 Este 36 Este 0 1012.8 -0.6 52
2019-07-21 19:00:00 30 18 Sudeste 36 Este 0 1012.7 -1 56
2019-07-21 18:00:00 29.9 18 Sudeste 38 Este 0 1012.7 -1.3 58
2019-07-21 17:00:00 30 23 Este 43 Sudeste 0 1013.4 -0.8 57
2019-07-21 16:00:00 30.9 22 Sudeste 44 Sudeste 0 1013.7 -0.5 53
2019-07-21 15:00:00 31.6 24 Sudeste 44 Sudeste 0 1014 -0.4 48
2019-07-21 14:00:00 31.5 26 Sudeste 41 Este 0 1014.2 0.4 47
2019-07-21 13:00:00 31.3 28 Este 45 Este 0 1014.2 0.6 46
2019-07-21 12:00:00 30.7 22 Sudeste 40 Este 0 1014.4 1.3 48
2019-07-21 11:00:00 31.5 21 Sudeste 37 Este 0 1013.8 0.8 35
2019-07-21 10:00:00 31.5 17 Este 37 Este 0 1013.6 1.1 28
2019-07-21 09:00:00 29.7 12 Nordeste 22 Nordeste 0 1013.1 1.2 31
2019-07-21 08:00:00 26.1 6 Sudeste 13 Sudeste 0 1013 1 47
2019-07-21 07:00:00 24.5 2 Noroeste 10 Nordeste 0 1012.5 0.5 46
2019-07-21 06:00:00 25 3 Norte 11 Norte 0 1011.9 -0.1 49
2019-07-21 05:00:00 25.7 9 Norte 12 Nordeste 0 1012 0.1 48
2019-07-21 04:00:00 26 3 Norte 7 Nordeste 0 1012 -0.1 51
2019-07-21 03:00:00 26.4 3 Noroeste 13 Norte 0 1012 0.1 53
2019-07-21 02:00:00 27.1 6 Sur 13 Sur 0 1011.9 0.3 51
2019-07-21 01:00:00 27.4 5 Oeste 10 Oeste 0 1012.1 0.8 49
2019-07-21 00:00:00 27.9 3 Sudoeste 10 Sudoeste 0 1011.9 1.1 51
2019-07-20 23:00:00 28.6 2 Sudoeste 15 Nordeste 0 1011.6 1.9 46
2019-07-20 22:00:00 28.9 9 Este 28 Este 0 1011.3 2.3 48
2019-07-20 21:00:00 28.4 15 Este 37 Sudeste 0 1010.8 1.8 57
2019-07-20 20:00:00 29.7 21 Este 39 Este 0 1009.7 0.7 55
2019-07-20 19:00:00 30.9 22 Este 40 Este 0 1009 0 52
2019-07-20 18:00:00 31.7 22 Este 50 Este 0 1009 -0.4 50
2019-07-20 17:00:00 31.7 22 Este 48 Este 0 1009 -0.3 50
2019-07-20 16:00:00 32 35 Este 61 Este 0 1009 0 48
2019-07-20 15:00:00 31.6 26 Este 49 Sudeste 0 1009.4 0.5 49
2019-07-20 14:00:00 31.7 28 Sudeste 51 Sudeste 0 1009.3 0.4 46
2019-07-20 13:00:00 34.4 24 Este 46 Sudeste 0 1009 0.1 32
2019-07-20 12:00:00 34.3 24 Este 42 Este 0 1008.9 0 25
2019-07-20 11:00:00 34.1 10 Este 30 Sudeste 0 1008.9 0.7 24
2019-07-20 10:00:00 32.2 6 Oeste 14 Oeste 0.2 1008.9 0.9 28
2019-07-20 09:00:00 29.9 5 Sudoeste 13 Sur 0 1008.9 0.8 30
2019-07-20 08:00:00 27.4 3 Sudeste 10 Norte 0 1008.2 0.6 31
2019-07-20 07:00:00 26.5 0 Calma 9 Norte 0 1008 -0.3 33
2019-07-20 06:00:00 27.9 6 Norte 19 Norte 0 1008.1 -0.9 31
2019-07-20 05:00:00 28 13 Norte 24 Norte 0 1007.6 -2.3 31
2019-07-20 04:00:00 27.5 4 Norte 11 Norte 0 1008.3 -2.1 33
2019-07-20 03:00:00 26.2 3 Nordeste 9 Norte 0 1009 -1.2 36
2019-07-20 02:00:00 26.3 2 Oeste 6 Oeste 0 1009.9 0.2 37
2019-07-20 01:00:00 27.1 3 Noroeste 9 Nordeste 0 1010.4 1.8 36
2019-07-20 00:00:00 28.1 5 Nordeste 21 Este 0 1010.2 2.7 35
2019-07-19 23:00:00 28.7 10 Este 25 Este 0 1009.7 1.7 36
2019-07-19 22:00:00 29.7 14 Este 30 Este 0 1008.6 0.2 30
2019-07-19 21:00:00 30.1 11 Este 34 Este 0 1007.5 -1.4 34
2019-07-19 20:00:00 30.7 18 Este 35 Este 0 1008 -1.3 37
2019-07-19 19:00:00 31 19 Este 37 Este 0 1008.4 -1.5 42
2019-07-19 18:00:00 31.5 18 Sudeste 44 Este 0 1008.9 -1.6 40
2019-07-19 17:00:00 31.2 22 Sudeste 41 Sudeste 0 1009.3 -1.8 45
2019-07-19 16:00:00 31.7 22 Sudeste 40 Sudeste 0 1009.9 -1.5 43
2019-07-19 15:00:00 32 19 Este 36 Este 0 1010.5 -0.9 40
2019-07-19 14:00:00 31.7 22 Sudeste 34 Sudeste 0 1011.1 -0.2 36
2019-07-19 13:00:00 31.2 19 Sudeste 36 Sudeste 0 1011.4 -0.2 39
2019-07-19 12:00:00 31.7 21 Sudeste 29 Sudeste 0 1011.4 -0.1 29
2019-07-19 11:00:00 32.2 12 Este 21 Este 0 1011.3 0.1 24
2019-07-19 10:00:00 29 5 Sur 11 Sudeste 0 1011.6 0.5 34
2019-07-19 09:00:00 28 2 Este 7 Norte 0 1011.5 0.7 37
2019-07-19 08:00:00 23.6 4 Norte 9 Norte 0 1011.2 0.6 38
2019-07-19 07:00:00 21.7 6 Norte 8 Norte 0 1011.1 0.3 48
2019-07-19 06:00:00 21.6 2 Norte 7 Noroeste 0 1010.8 -0.5 56
2019-07-19 05:00:00 23.1 4 Norte 9 Norte 0 1010.6 -0.9 62
2019-07-19 04:00:00 22.6 3 Noroeste 8 Norte 0 1010.8 -0.9 64
2019-07-19 03:00:00 23.7 2 Nordeste 7 Nordeste 0 1011.3 -0.3 65
2019-07-19 02:00:00 24.1 4 Nordeste 6 Nordeste 0 1011.5 0 67
2019-07-19 01:00:00 24.2 3 Norte 8 Norte 0 1011.7 0.8 72
2019-07-19 00:00:00 24.5 5 Este 8 Este 0 1011.6 1.1 74